createdAt,value
2022-12-20T00:00:08.435Z,96973.00
2022-12-20T00:04:13.877Z,96980.00
2022-12-20T00:08:17.820Z,96983.00
2022-12-20T00:12:51.814Z,96988.00
2022-12-20T00:16:57.091Z,96989.00
2022-12-20T00:21:01.074Z,96999.00
2022-12-20T00:25:13.235Z,96993.00
2022-12-20T00:29:16.259Z,96993.00
2022-12-20T00:33:20.726Z,96983.00
2022-12-20T00:37:54.717Z,96974.00
2022-12-20T00:41:57.745Z,96969.00
2022-12-20T00:46:01.491Z,96977.00
2022-12-20T00:50:07.267Z,96968.00
2022-12-20T00:54:10.323Z,96971.00
2022-12-20T00:58:47.189Z,96977.00
2022-12-20T01:02:50.274Z,96979.00
2022-12-20T01:06:54.767Z,96980.00
2022-12-20T01:11:02.152Z,96973.00
2022-12-20T01:15:36.023Z,96973.00
2022-12-20T01:19:39.091Z,96981.00
2022-12-20T01:23:43.767Z,96970.00
2022-12-20T01:28:17.268Z,96982.00
2022-12-20T01:32:20.349Z,96983.00
2022-12-20T01:36:26.022Z,96988.00
2022-12-20T01:41:01.585Z,96973.00
2022-12-20T01:45:14.040Z,96968.00
2022-12-20T01:49:20.990Z,96967.00
2022-12-20T01:53:25.674Z,96971.00
2022-12-20T01:57:35.845Z,96942.00
2022-12-20T02:02:06.256Z,96944.00
2022-12-20T02:06:18.231Z,96932.00
2022-12-20T02:10:25.296Z,96930.00
2022-12-20T02:14:43.495Z,96932.00
2022-12-20T02:19:15.317Z,96946.00
2022-12-20T02:23:36.337Z,96936.00
2022-12-20T02:28:00.698Z,96935.00
2022-12-20T02:32:10.430Z,96930.00
2022-12-20T02:36:16.024Z,96921.00
2022-12-20T02:40:24.852Z,96929.00
2022-12-20T02:44:48.955Z,96925.00
2022-12-20T02:48:54.990Z,96924.00
2022-12-20T02:52:58.841Z,96917.00
2022-12-20T02:57:06.773Z,96926.00
2022-12-20T03:01:15.854Z,96919.00
2022-12-20T03:05:24.548Z,96910.00
2022-12-20T03:09:27.870Z,96894.00
2022-12-20T03:13:30.914Z,96884.00
2022-12-20T03:17:33.930Z,96879.00
2022-12-20T03:21:38.630Z,96880.00
2022-12-20T03:25:41.868Z,96895.00
2022-12-20T03:29:46.048Z,96892.00
2022-12-20T03:33:49.197Z,96881.00
2022-12-20T03:37:53.723Z,96891.00
2022-12-20T03:41:56.798Z,96880.00
2022-12-20T03:45:59.831Z,96889.00
2022-12-20T03:50:02.941Z,96893.00
2022-12-20T03:54:07.529Z,96891.00
2022-12-20T03:58:10.515Z,96897.00
2022-12-20T04:02:13.923Z,96892.00
2022-12-20T04:06:17.989Z,96883.00
2022-12-20T04:10:23.968Z,96897.00
2022-12-20T04:14:27.036Z,96889.00
2022-12-20T04:18:30.266Z,96878.00
2022-12-20T04:22:33.420Z,96872.00
2022-12-20T04:26:38.400Z,96860.00
2022-12-20T04:30:42.249Z,96851.00
2022-12-20T04:34:45.301Z,96848.00
2022-12-20T04:38:48.478Z,96854.00
2022-12-20T04:42:52.995Z,96869.00
2022-12-20T04:46:56.093Z,96877.00
2022-12-20T04:51:08.623Z,96872.00
2022-12-20T04:55:12.490Z,96856.00
2022-12-20T04:59:16.996Z,96868.00
2022-12-20T05:03:20.230Z,96861.00
2022-12-20T05:07:23.475Z,96850.00
2022-12-20T05:16:43.503Z,96845.00
2022-12-20T05:21:34.728Z,96840.00
2022-12-20T05:25:57.211Z,96853.00
2022-12-20T05:30:16.182Z,96862.00
2022-12-20T05:34:20.823Z,96857.00
2022-12-20T05:38:24.089Z,96861.00
2022-12-20T05:42:27.133Z,96822.00
2022-12-20T05:46:30.239Z,96829.00
2022-12-20T05:51:08.812Z,96830.00
2022-12-20T05:55:12.110Z,96837.00
2022-12-20T05:59:15.312Z,96854.00
2022-12-20T06:03:18.949Z,96854.00
2022-12-20T06:07:23.585Z,96834.00
2022-12-20T06:11:57.400Z,96834.00
2022-12-20T06:16:01.637Z,96847.00
2022-12-20T06:20:05.470Z,96842.00
2022-12-20T06:24:10.214Z,96842.00
2022-12-20T06:28:46.894Z,96843.00
2022-12-20T06:32:50.140Z,96851.00
2022-12-20T06:36:53.244Z,96834.00
2022-12-20T06:40:57.680Z,96818.00
2022-12-20T06:45:34.757Z,96831.00
2022-12-20T06:49:42.487Z,96827.00
2022-12-20T06:53:45.594Z,96818.00
2022-12-20T06:57:50.026Z,96817.00
2022-12-20T07:01:53.186Z,96809.00
2022-12-20T07:06:30.277Z,96807.00
2022-12-20T07:10:35.684Z,96804.00
2022-12-20T07:15:14.504Z,96798.00
2022-12-20T07:19:18.189Z,96799.00
2022-12-20T07:23:56.242Z,96809.00
2022-12-20T07:27:59.450Z,96800.00
2022-12-20T07:32:03.952Z,96817.00
2022-12-20T07:36:37.942Z,96840.00
2022-12-20T07:40:43.510Z,96837.00
2022-12-20T07:45:17.903Z,96841.00
2022-12-20T07:49:23.475Z,96844.00
2022-12-20T07:53:30.146Z,96830.00
2022-12-20T07:57:38.219Z,96829.00
2022-12-20T08:02:09.548Z,96833.00
2022-12-20T08:06:15.316Z,96828.00
2022-12-20T08:10:20.777Z,96829.00
2022-12-20T08:14:23.887Z,96817.00
2022-12-20T08:19:01.018Z,96823.00
2022-12-20T08:23:06.197Z,96818.00
2022-12-20T08:27:10.040Z,96808.00
2022-12-20T08:31:13.927Z,96806.00
2022-12-20T08:35:47.839Z,96806.00
2022-12-20T08:39:52.273Z,96813.00
2022-12-20T08:43:55.483Z,96798.00
2022-12-20T08:47:58.521Z,96789.00
2022-12-20T08:52:35.260Z,96783.00
2022-12-20T08:56:39.690Z,96787.00
2022-12-20T09:00:42.812Z,96787.00
2022-12-20T09:04:46.066Z,96785.00
2022-12-20T09:08:49.588Z,96779.00
2022-12-20T09:13:27.786Z,96783.00
2022-12-20T09:17:32.272Z,96786.00
2022-12-20T09:21:36.203Z,96782.00
2022-12-20T09:25:39.254Z,96782.00
2022-12-20T09:30:17.985Z,96782.00
2022-12-20T09:34:21.022Z,96782.00
2022-12-20T09:38:58.106Z,96775.00
2022-12-20T09:43:01.329Z,96773.00
2022-12-20T09:47:11.377Z,96766.00
2022-12-20T09:51:36.704Z,96779.00
2022-12-20T09:55:44.981Z,96775.00
2022-12-20T09:59:50.003Z,96783.00
2022-12-20T10:03:57.385Z,96771.00
2022-12-20T10:08:08.660Z,96759.00
2022-12-20T10:12:41.748Z,96756.00
2022-12-20T10:17:15.397Z,96743.00
2022-12-20T10:21:28.236Z,96739.00
2022-12-20T10:25:54.804Z,96742.00
2022-12-20T10:29:58.528Z,96740.00
2022-12-20T10:34:01.743Z,96742.00
2022-12-20T10:38:45.006Z,96725.00
2022-12-20T10:42:48.192Z,96731.00
2022-12-20T10:46:55.119Z,96717.00
2022-12-20T10:51:03.007Z,96707.00
2022-12-20T10:55:36.817Z,96696.00
2022-12-20T10:59:43.831Z,96686.00
2022-12-20T11:03:57.164Z,96672.00
2022-12-20T11:08:34.851Z,96663.00
2022-12-20T11:12:38.189Z,96666.00
2022-12-20T11:16:42.170Z,96664.00
2022-12-20T11:20:52.200Z,96645.00
2022-12-20T11:25:11.629Z,96643.00
2022-12-20T11:29:35.573Z,96635.00
2022-12-20T11:34:15.323Z,96628.00
2022-12-20T11:38:32.025Z,96617.00
2022-12-20T11:42:48.740Z,96612.00
2022-12-20T11:47:29.604Z,96607.00
2022-12-20T11:51:41.051Z,96602.00
2022-12-20T11:56:10.106Z,96591.00
2022-12-20T12:00:16.074Z,96592.00
2022-12-20T12:04:23.391Z,96589.00
2022-12-20T12:08:32.823Z,96583.00
2022-12-20T12:12:42.088Z,96588.00
2022-12-20T12:16:51.968Z,96582.00
2022-12-20T12:21:08.360Z,96570.00
2022-12-20T12:25:16.717Z,96580.00
2022-12-20T12:29:23.156Z,96571.00
2022-12-20T12:33:38.225Z,96564.00
2022-12-20T12:38:15.883Z,96554.00
2022-12-20T12:42:39.162Z,96573.00
2022-12-20T12:46:56.690Z,96568.00
2022-12-20T12:51:02.691Z,96560.00
2022-12-20T12:55:37.637Z,96560.00
2022-12-20T12:59:48.460Z,96549.00
2022-12-20T13:04:11.074Z,96549.00
2022-12-20T13:08:48.776Z,96547.00
2022-12-20T13:13:14.861Z,96564.00
2022-12-20T13:17:50.781Z,96572.00
2022-12-20T13:21:57.373Z,96566.00
2022-12-20T13:26:00.692Z,96573.00
2022-12-20T13:30:37.438Z,96563.00
2022-12-20T13:34:56.126Z,96545.00
2022-12-20T13:39:01.875Z,96552.00
2022-12-20T13:43:09.680Z,96544.00
2022-12-20T13:47:28.432Z,96539.00
2022-12-20T13:51:33.144Z,96523.00
2022-12-20T13:55:39.015Z,96505.00
2022-12-20T14:00:17.581Z,96498.00
2022-12-20T14:04:21.530Z,96509.00
2022-12-20T14:08:29.452Z,96518.00
2022-12-20T14:12:36.813Z,96503.00
2022-12-20T14:17:18.197Z,96505.00
2022-12-20T14:21:22.213Z,96521.00
2022-12-20T14:25:33.096Z,96537.00
2022-12-20T14:29:36.340Z,96538.00
2022-12-20T14:33:40.649Z,96537.00
2022-12-20T14:37:54.573Z,96525.00
2022-12-20T14:42:00.866Z,96508.00
2022-12-20T14:46:20.012Z,96502.00
2022-12-20T14:50:27.979Z,96510.00
2022-12-20T14:55:06.396Z,96491.00
2022-12-20T14:59:07.938Z,96462.00
2022-12-20T15:03:18.772Z,96435.00
2022-12-20T15:07:31.430Z,96471.00
2022-12-20T15:11:36.638Z,96476.00
2022-12-20T15:15:41.347Z,96475.00
2022-12-20T15:19:44.690Z,96464.00
2022-12-20T15:23:51.624Z,96468.00
2022-12-20T15:27:54.856Z,96471.00
2022-12-20T15:32:32.216Z,96470.00
2022-12-20T15:36:36.623Z,96461.00
2022-12-20T15:40:46.266Z,96462.00
2022-12-20T15:45:17.310Z,96460.00
2022-12-20T15:49:23.094Z,96463.00
2022-12-20T15:53:30.105Z,96457.00
2022-12-20T15:58:02.907Z,96455.00
2022-12-20T16:02:19.881Z,96451.00
2022-12-20T16:06:23.289Z,96448.00
2022-12-20T16:11:01.635Z,96454.00
2022-12-20T16:15:05.402Z,96456.00
2022-12-20T16:19:08.502Z,96461.00
2022-12-20T16:23:45.147Z,96475.00
2022-12-20T16:27:49.603Z,96477.00
2022-12-20T16:31:52.691Z,96478.00
2022-12-20T16:35:55.760Z,96471.00
2022-12-20T16:40:34.600Z,96467.00
2022-12-20T16:44:42.751Z,96458.00
2022-12-20T16:48:46.776Z,96454.00
2022-12-20T16:52:50.799Z,96456.00
2022-12-20T16:56:56.174Z,96459.00
2022-12-20T17:01:32.612Z,96468.00
2022-12-20T17:05:39.639Z,96459.00
2022-12-20T17:14:06.314Z,96455.00
2022-12-20T17:18:43.321Z,96445.00
2022-12-20T17:23:17.388Z,96439.00
2022-12-20T17:27:55.707Z,96433.00
2022-12-20T17:32:29.714Z,96428.00
2022-12-20T17:37:08.837Z,96424.00
2022-12-20T17:41:43.713Z,96428.00
2022-12-20T17:45:47.721Z,96416.00
2022-12-20T17:49:50.877Z,96415.00
2022-12-20T17:54:36.648Z,96412.00
2022-12-20T17:59:04.626Z,96388.00
2022-12-20T18:04:03.107Z,96405.00
2022-12-20T18:08:14.011Z,96411.00
2022-12-20T18:13:11.791Z,96413.00
2022-12-20T18:17:16.639Z,96428.00
2022-12-20T18:21:50.329Z,96423.00
2022-12-20T18:25:53.403Z,96431.00
2022-12-20T18:29:56.519Z,96417.00
2022-12-20T18:34:30.272Z,96413.00
2022-12-20T18:39:09.101Z,96427.00
2022-12-20T18:43:12.098Z,96441.00
2022-12-20T18:47:15.143Z,96457.00
2022-12-20T18:51:20.455Z,96440.00
2022-12-20T18:55:25.089Z,96413.00
2022-12-20T18:59:28.222Z,96403.00
2022-12-20T19:03:31.688Z,96412.00
2022-12-20T19:08:05.531Z,96427.00
2022-12-20T19:12:10.376Z,96414.00
2022-12-20T19:16:15.721Z,96404.00
2022-12-20T19:20:50.854Z,96411.00
2022-12-20T19:25:24.601Z,96415.00
2022-12-20T19:30:03.905Z,96413.00
2022-12-20T19:34:37.515Z,96397.00
2022-12-20T19:39:15.630Z,96406.00
2022-12-20T19:43:18.779Z,96375.00
2022-12-20T19:47:57.373Z,96362.00
2022-12-20T19:52:00.411Z,96343.00
2022-12-20T19:56:37.352Z,96345.00
2022-12-20T20:01:15.554Z,96361.00
2022-12-20T20:05:51.122Z,96351.00
2022-12-20T20:10:24.818Z,96347.00
2022-12-20T20:14:27.913Z,96332.00
2022-12-20T20:18:31.279Z,96307.00
2022-12-20T20:23:11.138Z,96315.00
2022-12-20T20:27:49.015Z,96314.00
2022-12-20T20:32:26.194Z,96327.00
2022-12-20T20:37:02.887Z,96322.00
2022-12-20T20:41:42.901Z,96313.00
2022-12-20T20:46:16.949Z,96303.00
2022-12-20T20:50:53.765Z,96309.00
2022-12-20T20:55:30.550Z,96298.00
2022-12-20T21:00:10.051Z,96301.00
2022-12-20T21:04:58.669Z,96299.00
2022-12-20T21:09:21.511Z,96291.00
2022-12-20T21:13:24.507Z,96328.00
2022-12-20T21:18:03.105Z,96314.00
2022-12-20T21:22:39.994Z,96295.00
2022-12-20T21:27:16.771Z,96310.00
2022-12-20T21:31:20.710Z,96306.00
2022-12-20T21:36:00.911Z,96307.00
2022-12-20T21:40:36.391Z,96288.00
2022-12-20T21:45:13.069Z,96275.00
2022-12-20T21:49:49.791Z,96287.00
2022-12-20T21:54:28.306Z,96282.00
2022-12-20T21:58:32.131Z,96302.00
2022-12-20T22:03:05.775Z,96288.00
2022-12-20T22:07:09.374Z,96291.00
2022-12-20T22:11:15.858Z,96302.00
2022-12-20T22:15:18.899Z,96307.00
2022-12-20T22:19:21.944Z,96311.00
2022-12-20T22:23:25.047Z,96319.00
2022-12-20T22:28:03.238Z,96310.00
2022-12-20T22:32:06.592Z,96320.00
2022-12-20T22:36:11.761Z,96327.00
2022-12-20T22:40:45.591Z,96321.00
2022-12-20T22:44:50.271Z,96311.00
2022-12-20T22:49:24.264Z,96324.00
2022-12-20T22:53:27.572Z,96335.00
2022-12-20T22:58:04.051Z,96326.00
2022-12-20T23:02:42.800Z,96318.00
2022-12-20T23:07:16.924Z,96297.00
2022-12-20T23:12:09.739Z,96290.00
2022-12-20T23:16:13.106Z,96287.00
2022-12-20T23:20:34.908Z,96300.00
2022-12-20T23:24:38.002Z,96303.00
2022-12-20T23:28:41.245Z,96295.00
2022-12-20T23:32:45.286Z,96293.00
2022-12-20T23:37:23.775Z,96307.00
2022-12-20T23:41:26.900Z,96309.00
2022-12-20T23:45:30.002Z,96302.00
2022-12-20T23:49:33.077Z,96290.00
2022-12-20T23:53:38.137Z,96291.00
2022-12-20T23:58:11.692Z,96263.00
